sensor_id;sensor_type;location;lat;lon;timestamp;temperature;humidity
51765;DHT22;37835;53.256;6.456;2023-07-31T00:00:08;16.70;99.90
51765;DHT22;37835;53.256;6.456;2023-07-31T00:02:36;16.60;99.90
51765;DHT22;37835;53.256;6.456;2023-07-31T00:05:02;16.60;99.90
51765;DHT22;37835;53.256;6.456;2023-07-31T00:07:28;16.70;99.90
51765;DHT22;37835;53.256;6.456;2023-07-31T00:09:53;16.60;99.90
51765;DHT22;37835;53.256;6.456;2023-07-31T00:12:20;16.70;99.90
51765;DHT22;37835;53.256;6.456;2023-07-31T00:14:45;16.70;99.90
51765;DHT22;37835;53.256;6.456;2023-07-31T00:17:11;16.70;99.90
51765;DHT22;37835;53.256;6.456;2023-07-31T00:19:37;16.60;99.90
51765;DHT22;37835;53.256;6.456;2023-07-31T00:22:03;16.60;99.90
51765;DHT22;37835;53.256;6.456;2023-07-31T00:24:28;16.60;99.90
51765;DHT22;37835;53.256;6.456;2023-07-31T00:26:54;16.60;99.90
51765;DHT22;37835;53.256;6.456;2023-07-31T00:29:19;16.60;99.90
51765;DHT22;37835;53.256;6.456;2023-07-31T00:31:45;16.60;99.90
51765;DHT22;37835;53.256;6.456;2023-07-31T00:34:11;16.60;99.90
51765;DHT22;37835;53.256;6.456;2023-07-31T00:36:36;16.60;99.90
51765;DHT22;37835;53.256;6.456;2023-07-31T00:39:02;16.60;99.90
51765;DHT22;37835;53.256;6.456;2023-07-31T00:41:27;16.60;99.90
51765;DHT22;37835;53.256;6.456;2023-07-31T00:43:53;16.60;99.90
51765;DHT22;37835;53.256;6.456;2023-07-31T00:46:19;16.60;99.90
51765;DHT22;37835;53.256;6.456;2023-07-31T00:48:45;16.60;99.90
51765;DHT22;37835;53.256;6.456;2023-07-31T00:51:11;16.60;99.90
51765;DHT22;37835;53.256;6.456;2023-07-31T00:53:36;16.50;99.90
51765;DHT22;37835;53.256;6.456;2023-07-31T00:56:03;16.50;99.90
51765;DHT22;37835;53.256;6.456;2023-07-31T00:58:29;16.50;99.90
51765;DHT22;37835;53.256;6.456;2023-07-31T01:00:55;16.40;99.90
51765;DHT22;37835;53.256;6.456;2023-07-31T01:03:21;16.30;99.90
51765;DHT22;37835;53.256;6.456;2023-07-31T01:06:05;16.30;99.90
51765;DHT22;37835;53.256;6.456;2023-07-31T01:08:53;16.30;99.90
51765;DHT22;37835;53.256;6.456;2023-07-31T01:11:27;16.20;99.90
51765;DHT22;37835;53.256;6.456;2023-07-31T01:13:54;16.20;99.90
51765;DHT22;37835;53.256;6.456;2023-07-31T01:16:20;16.20;99.90
51765;DHT22;37835;53.256;6.456;2023-07-31T01:18:46;16.20;99.90
51765;DHT22;37835;53.256;6.456;2023-07-31T01:21:28;16.20;99.90
51765;DHT22;37835;53.256;6.456;2023-07-31T01:24:05;16.20;99.90
51765;DHT22;37835;53.256;6.456;2023-07-31T01:26:35;16.20;99.90
51765;DHT22;37835;53.256;6.456;2023-07-31T01:29:07;16.20;99.90
51765;DHT22;37835;53.256;6.456;2023-07-31T01:31:36;16.20;99.90
51765;DHT22;37835;53.256;6.456;2023-07-31T01:34:02;16.10;99.90
51765;DHT22;37835;53.256;6.456;2023-07-31T01:36:30;16.10;99.90
51765;DHT22;37835;53.256;6.456;2023-07-31T01:39:00;16.10;99.90
51765;DHT22;37835;53.256;6.456;2023-07-31T01:41:26;16.10;99.90
51765;DHT22;37835;53.256;6.456;2023-07-31T01:43:51;16.10;99.90
51765;DHT22;37835;53.256;6.456;2023-07-31T01:46:17;16.10;99.90
51765;DHT22;37835;53.256;6.456;2023-07-31T01:48:43;16.10;99.90
51765;DHT22;37835;53.256;6.456;2023-07-31T01:51:08;16.10;99.90
51765;DHT22;37835;53.256;6.456;2023-07-31T01:53:34;16.10;99.90
51765;DHT22;37835;53.256;6.456;2023-07-31T01:55:59;16.10;99.90
51765;DHT22;37835;53.256;6.456;2023-07-31T01:58:25;16.10;99.90
51765;DHT22;37835;53.256;6.456;2023-07-31T02:00:51;16.10;99.90
51765;DHT22;37835;53.256;6.456;2023-07-31T02:03:16;16.10;99.90
51765;DHT22;37835;53.256;6.456;2023-07-31T02:05:45;16.00;99.90
51765;DHT22;37835;53.256;6.456;2023-07-31T02:08:11;16.00;99.90
51765;DHT22;37835;53.256;6.456;2023-07-31T02:10:37;15.90;99.90
51765;DHT22;37835;53.256;6.456;2023-07-31T02:13:02;16.00;99.90
51765;DHT22;37835;53.256;6.456;2023-07-31T02:15:29;16.00;99.90
51765;DHT22;37835;53.256;6.456;2023-07-31T02:17:55;16.00;99.90
51765;DHT22;37835;53.256;6.456;2023-07-31T02:20:21;16.00;99.90
51765;DHT22;37835;53.256;6.456;2023-07-31T02:22:46;16.00;99.90
51765;DHT22;37835;53.256;6.456;2023-07-31T02:25:12;16.00;99.90
51765;DHT22;37835;53.256;6.456;2023-07-31T02:27:37;16.00;99.90
51765;DHT22;37835;53.256;6.456;2023-07-31T02:30:03;16.00;99.90
51765;DHT22;37835;53.256;6.456;2023-07-31T02:32:29;16.00;99.90
51765;DHT22;37835;53.256;6.456;2023-07-31T02:34:54;16.00;99.90
51765;DHT22;37835;53.256;6.456;2023-07-31T02:37:20;16.00;99.90
51765;DHT22;37835;53.256;6.456;2023-07-31T02:39:45;16.00;99.90
51765;DHT22;37835;53.256;6.456;2023-07-31T02:42:11;16.00;99.90
51765;DHT22;37835;53.256;6.456;2023-07-31T02:44:36;16.00;99.90
51765;DHT22;37835;53.256;6.456;2023-07-31T02:47:02;16.00;99.90
51765;DHT22;37835;53.256;6.456;2023-07-31T02:49:28;16.00;99.90
51765;DHT22;37835;53.256;6.456;2023-07-31T02:51:54;16.00;99.90
51765;DHT22;37835;53.256;6.456;2023-07-31T02:54:19;16.00;99.90
51765;DHT22;37835;53.256;6.456;2023-07-31T02:56:47;16.00;99.90
51765;DHT22;37835;53.256;6.456;2023-07-31T02:59:12;15.90;99.90
51765;DHT22;37835;53.256;6.456;2023-07-31T03:01:38;16.00;99.90
51765;DHT22;37835;53.256;6.456;2023-07-31T03:04:04;16.00;99.90
51765;DHT22;37835;53.256;6.456;2023-07-31T03:06:30;16.00;99.90
51765;DHT22;37835;53.256;6.456;2023-07-31T03:08:55;16.00;99.90
51765;DHT22;37835;53.256;6.456;2023-07-31T03:11:21;16.00;99.90
51765;DHT22;37835;53.256;6.456;2023-07-31T03:13:47;16.00;99.90
51765;DHT22;37835;53.256;6.456;2023-07-31T03:16:12;16.00;99.90
51765;DHT22;37835;53.256;6.456;2023-07-31T03:18:38;16.00;99.90
51765;DHT22;37835;53.256;6.456;2023-07-31T03:21:04;16.00;99.90
51765;DHT22;37835;53.256;6.456;2023-07-31T03:23:30;16.00;99.90
51765;DHT22;37835;53.256;6.456;2023-07-31T03:26:00;16.00;99.90
51765;DHT22;37835;53.256;6.456;2023-07-31T03:28:26;16.00;99.90
51765;DHT22;37835;53.256;6.456;2023-07-31T03:30:52;16.00;99.90
51765;DHT22;37835;53.256;6.456;2023-07-31T03:33:18;16.00;99.90
51765;DHT22;37835;53.256;6.456;2023-07-31T03:35:44;15.90;99.90
51765;DHT22;37835;53.256;6.456;2023-07-31T03:38:09;16.00;99.90
51765;DHT22;37835;53.256;6.456;2023-07-31T03:40:35;15.90;99.90
51765;DHT22;37835;53.256;6.456;2023-07-31T03:43:01;15.90;99.90
51765;DHT22;37835;53.256;6.456;2023-07-31T03:45:26;15.90;99.90
51765;DHT22;37835;53.256;6.456;2023-07-31T03:47:52;15.90;99.90
51765;DHT22;37835;53.256;6.456;2023-07-31T03:50:18;15.90;99.90
51765;DHT22;37835;53.256;6.456;2023-07-31T03:52:44;15.90;99.90
51765;DHT22;37835;53.256;6.456;2023-07-31T03:55:10;15.90;99.90
51765;DHT22;37835;53.256;6.456;2023-07-31T03:57:35;15.90;99.90
51765;DHT22;37835;53.256;6.456;2023-07-31T04:00:01;15.90;99.90
51765;DHT22;37835;53.256;6.456;2023-07-31T04:02:26;15.90;99.90
51765;DHT22;37835;53.256;6.456;2023-07-31T04:04:52;15.90;99.90
51765;DHT22;37835;53.256;6.456;2023-07-31T04:07:17;15.90;99.90
51765;DHT22;37835;53.256;6.456;2023-07-31T04:09:43;16.00;99.90
51765;DHT22;37835;53.256;6.456;2023-07-31T04:12:08;15.90;99.90
51765;DHT22;37835;53.256;6.456;2023-07-31T04:14:34;15.90;99.90
51765;DHT22;37835;53.256;6.456;2023-07-31T04:16:59;15.90;99.90
51765;DHT22;37835;53.256;6.456;2023-07-31T04:19:25;15.90;99.90
51765;DHT22;37835;53.256;6.456;2023-07-31T04:21:51;15.90;99.90
51765;DHT22;37835;53.256;6.456;2023-07-31T04:24:16;15.90;99.90
51765;DHT22;37835;53.256;6.456;2023-07-31T04:26:47;15.90;99.90
51765;DHT22;37835;53.256;6.456;2023-07-31T04:29:13;15.90;99.90
51765;DHT22;37835;53.256;6.456;2023-07-31T04:31:38;15.90;99.90
51765;DHT22;37835;53.256;6.456;2023-07-31T04:34:04;15.90;99.90
51765;DHT22;37835;53.256;6.456;2023-07-31T04:36:30;15.90;99.90
51765;DHT22;37835;53.256;6.456;2023-07-31T04:38:55;16.00;99.90
51765;DHT22;37835;53.256;6.456;2023-07-31T04:41:21;15.90;99.90
51765;DHT22;37835;53.256;6.456;2023-07-31T04:43:46;15.90;99.90
51765;DHT22;37835;53.256;6.456;2023-07-31T04:46:12;15.90;99.90
51765;DHT22;37835;53.256;6.456;2023-07-31T04:48:38;16.00;99.90
51765;DHT22;37835;53.256;6.456;2023-07-31T04:51:03;16.00;99.90
51765;DHT22;37835;53.256;6.456;2023-07-31T04:53:29;15.90;99.90
51765;DHT22;37835;53.256;6.456;2023-07-31T04:55:54;15.90;99.90
51765;DHT22;37835;53.256;6.456;2023-07-31T04:58:22;15.90;99.90
51765;DHT22;37835;53.256;6.456;2023-07-31T05:00:48;15.90;99.90
51765;DHT22;37835;53.256;6.456;2023-07-31T05:03:13;15.90;99.90
51765;DHT22;37835;53.256;6.456;2023-07-31T05:05:39;15.90;99.90
51765;DHT22;37835;53.256;6.456;2023-07-31T05:08:04;15.90;99.90
51765;DHT22;37835;53.256;6.456;2023-07-31T05:10:30;15.90;99.90
51765;DHT22;37835;53.256;6.456;2023-07-31T05:12:55;16.00;99.90
51765;DHT22;37835;53.256;6.456;2023-07-31T05:15:21;16.00;99.90
51765;DHT22;37835;53.256;6.456;2023-07-31T05:17:47;16.00;99.90
51765;DHT22;37835;53.256;6.456;2023-07-31T05:20:12;16.00;99.90
51765;DHT22;37835;53.256;6.456;2023-07-31T05:22:38;16.00;99.90
51765;DHT22;37835;53.256;6.456;2023-07-31T05:25:04;16.00;99.90
51765;DHT22;37835;53.256;6.456;2023-07-31T05:27:33;16.00;99.90
51765;DHT22;37835;53.256;6.456;2023-07-31T05:29:58;16.00;99.90
51765;DHT22;37835;53.256;6.456;2023-07-31T05:32:24;16.00;99.90
51765;DHT22;37835;53.256;6.456;2023-07-31T05:34:52;16.00;99.90
51765;DHT22;37835;53.256;6.456;2023-07-31T05:37:19;16.00;99.90
51765;DHT22;37835;53.256;6.456;2023-07-31T05:39:45;16.00;99.90
51765;DHT22;37835;53.256;6.456;2023-07-31T05:42:10;16.00;99.90
51765;DHT22;37835;53.256;6.456;2023-07-31T05:44:36;16.00;99.90
51765;DHT22;37835;53.256;6.456;2023-07-31T05:47:01;16.00;99.90
51765;DHT22;37835;53.256;6.456;2023-07-31T05:49:27;16.00;99.90
51765;DHT22;37835;53.256;6.456;2023-07-31T05:51:53;16.00;99.90
51765;DHT22;37835;53.256;6.456;2023-07-31T05:54:18;16.00;99.90
51765;DHT22;37835;53.256;6.456;2023-07-31T05:56:44;16.00;99.90
51765;DHT22;37835;53.256;6.456;2023-07-31T05:59:12;16.00;99.90
51765;DHT22;37835;53.256;6.456;2023-07-31T06:01:39;16.10;99.90
51765;DHT22;37835;53.256;6.456;2023-07-31T06:04:04;16.10;99.90
51765;DHT22;37835;53.256;6.456;2023-07-31T06:06:30;16.10;99.90
51765;DHT22;37835;53.256;6.456;2023-07-31T06:08:56;16.10;99.90
51765;DHT22;37835;53.256;6.456;2023-07-31T06:11:22;16.10;99.90
51765;DHT22;37835;53.256;6.456;2023-07-31T06:13:47;16.10;99.90
51765;DHT22;37835;53.256;6.456;2023-07-31T06:16:14;16.20;99.90
51765;DHT22;37835;53.256;6.456;2023-07-31T06:18:41;16.20;99.90
51765;DHT22;37835;53.256;6.456;2023-07-31T06:21:07;16.20;99.90
51765;DHT22;37835;53.256;6.456;2023-07-31T06:23:32;16.20;99.90
51765;DHT22;37835;53.256;6.456;2023-07-31T06:25:58;16.20;99.90
51765;DHT22;37835;53.256;6.456;2023-07-31T06:28:30;16.20;99.90
51765;DHT22;37835;53.256;6.456;2023-07-31T06:30:57;16.30;99.90
51765;DHT22;37835;53.256;6.456;2023-07-31T06:33:22;16.30;99.90
51765;DHT22;37835;53.256;6.456;2023-07-31T06:35:48;16.30;99.90
51765;DHT22;37835;53.256;6.456;2023-07-31T06:38:14;16.40;99.90
51765;DHT22;37835;53.256;6.456;2023-07-31T06:43:05;16.40;99.90
51765;DHT22;37835;53.256;6.456;2023-07-31T06:45:35;16.40;99.90
51765;DHT22;37835;53.256;6.456;2023-07-31T06:48:01;16.40;99.90
51765;DHT22;37835;53.256;6.456;2023-07-31T06:50:28;16.40;99.90
51765;DHT22;37835;53.256;6.456;2023-07-31T06:52:54;16.50;99.90
51765;DHT22;37835;53.256;6.456;2023-07-31T06:55:21;16.50;99.90
51765;DHT22;37835;53.256;6.456;2023-07-31T06:57:51;16.60;99.90
51765;DHT22;37835;53.256;6.456;2023-07-31T07:00:18;16.50;99.90
51765;DHT22;37835;53.256;6.456;2023-07-31T07:02:46;16.70;99.90
51765;DHT22;37835;53.256;6.456;2023-07-31T07:05:16;16.70;99.90
51765;DHT22;37835;53.256;6.456;2023-07-31T07:07:41;16.70;99.90
51765;DHT22;37835;53.256;6.456;2023-07-31T07:10:08;16.80;99.90
51765;DHT22;37835;53.256;6.456;2023-07-31T07:12:34;16.90;99.90
51765;DHT22;37835;53.256;6.456;2023-07-31T07:15:00;16.90;99.90
51765;DHT22;37835;53.256;6.456;2023-07-31T07:17:28;16.90;99.90
51765;DHT22;37835;53.256;6.456;2023-07-31T07:19:54;16.90;99.90
51765;DHT22;37835;53.256;6.456;2023-07-31T07:22:20;17.00;99.90
51765;DHT22;37835;53.256;6.456;2023-07-31T07:24:46;17.00;99.90
51765;DHT22;37835;53.256;6.456;2023-07-31T07:27:11;17.00;99.90
51765;DHT22;37835;53.256;6.456;2023-07-31T07:29:38;17.00;99.90
51765;DHT22;37835;53.256;6.456;2023-07-31T07:32:04;17.00;99.90
51765;DHT22;37835;53.256;6.456;2023-07-31T07:34:29;17.00;99.90
51765;DHT22;37835;53.256;6.456;2023-07-31T07:36:55;17.00;99.90
51765;DHT22;37835;53.256;6.456;2023-07-31T07:39:21;17.00;99.90
51765;DHT22;37835;53.256;6.456;2023-07-31T07:41:47;17.00;99.90
51765;DHT22;37835;53.256;6.456;2023-07-31T07:44:13;17.00;99.90
51765;DHT22;37835;53.256;6.456;2023-07-31T07:46:40;17.10;99.90
51765;DHT22;37835;53.256;6.456;2023-07-31T07:49:05;17.10;99.90
51765;DHT22;37835;53.256;6.456;2023-07-31T07:51:31;17.10;99.90
51765;DHT22;37835;53.256;6.456;2023-07-31T07:53:57;17.10;99.90
51765;DHT22;37835;53.256;6.456;2023-07-31T07:56:25;17.20;99.90
51765;DHT22;37835;53.256;6.456;2023-07-31T07:58:51;17.10;99.90
51765;DHT22;37835;53.256;6.456;2023-07-31T08:01:16;17.20;99.90
51765;DHT22;37835;53.256;6.456;2023-07-31T08:03:42;17.20;99.90
51765;DHT22;37835;53.256;6.456;2023-07-31T08:06:08;17.30;99.90
51765;DHT22;37835;53.256;6.456;2023-07-31T08:08:37;17.20;99.90
51765;DHT22;37835;53.256;6.456;2023-07-31T08:11:03;17.30;99.90
51765;DHT22;37835;53.256;6.456;2023-07-31T08:13:29;17.30;99.90
51765;DHT22;37835;53.256;6.456;2023-07-31T08:15:54;17.20;99.90
51765;DHT22;37835;53.256;6.456;2023-07-31T08:18:20;17.20;99.90
51765;DHT22;37835;53.256;6.456;2023-07-31T08:20:46;17.10;99.90
51765;DHT22;37835;53.256;6.456;2023-07-31T08:23:12;17.10;99.90
51765;DHT22;37835;53.256;6.456;2023-07-31T08:25:38;17.10;99.90
51765;DHT22;37835;53.256;6.456;2023-07-31T08:28:04;17.10;99.90
51765;DHT22;37835;53.256;6.456;2023-07-31T08:30:29;17.10;99.90
51765;DHT22;37835;53.256;6.456;2023-07-31T08:32:55;17.20;99.90
51765;DHT22;37835;53.256;6.456;2023-07-31T08:35:21;17.20;99.90
51765;DHT22;37835;53.256;6.456;2023-07-31T08:37:46;17.20;99.90
51765;DHT22;37835;53.256;6.456;2023-07-31T08:40:12;17.30;99.90
51765;DHT22;37835;53.256;6.456;2023-07-31T08:42:44;17.30;99.90
51765;DHT22;37835;53.256;6.456;2023-07-31T08:45:14;17.40;99.90
51765;DHT22;37835;53.256;6.456;2023-07-31T08:47:42;17.40;99.90
51765;DHT22;37835;53.256;6.456;2023-07-31T08:50:08;17.50;99.90
51765;DHT22;37835;53.256;6.456;2023-07-31T08:52:34;17.50;99.90
51765;DHT22;37835;53.256;6.456;2023-07-31T08:54:59;17.60;99.90
51765;DHT22;37835;53.256;6.456;2023-07-31T08:57:25;17.60;99.90
51765;DHT22;37835;53.256;6.456;2023-07-31T08:59:51;17.60;99.90
51765;DHT22;37835;53.256;6.456;2023-07-31T09:02:19;17.60;99.90
51765;DHT22;37835;53.256;6.456;2023-07-31T09:04:44;17.60;99.90
51765;DHT22;37835;53.256;6.456;2023-07-31T09:07:11;17.70;99.90
51765;DHT22;37835;53.256;6.456;2023-07-31T09:09:38;17.60;99.90
51765;DHT22;37835;53.256;6.456;2023-07-31T09:12:04;17.60;99.90
51765;DHT22;37835;53.256;6.456;2023-07-31T09:14:30;17.60;99.90
51765;DHT22;37835;53.256;6.456;2023-07-31T09:16:57;17.60;99.90
51765;DHT22;37835;53.256;6.456;2023-07-31T09:19:26;17.70;99.90
51765;DHT22;37835;53.256;6.456;2023-07-31T09:21:52;17.70;99.90
51765;DHT22;37835;53.256;6.456;2023-07-31T09:24:29;17.70;99.90
51765;DHT22;37835;53.256;6.456;2023-07-31T09:26:55;17.80;99.90
51765;DHT22;37835;53.256;6.456;2023-07-31T09:29:23;17.80;99.90
51765;DHT22;37835;53.256;6.456;2023-07-31T09:31:48;17.80;99.90
51765;DHT22;37835;53.256;6.456;2023-07-31T09:34:14;17.80;99.90
51765;DHT22;37835;53.256;6.456;2023-07-31T09:36:45;17.80;99.90
51765;DHT22;37835;53.256;6.456;2023-07-31T09:39:11;17.90;99.90
51765;DHT22;37835;53.256;6.456;2023-07-31T09:41:39;17.90;99.90
51765;DHT22;37835;53.256;6.456;2023-07-31T09:44:05;17.90;99.90
51765;DHT22;37835;53.256;6.456;2023-07-31T09:46:31;17.90;99.90
51765;DHT22;37835;53.256;6.456;2023-07-31T09:49:10;18.00;99.90
51765;DHT22;37835;53.256;6.456;2023-07-31T09:51:38;18.00;99.90
51765;DHT22;37835;53.256;6.456;2023-07-31T09:54:10;18.10;99.90
51765;DHT22;37835;53.256;6.456;2023-07-31T09:56:44;18.10;99.90
51765;DHT22;37835;53.256;6.456;2023-07-31T09:59:18;18.10;99.90
51765;DHT22;37835;53.256;6.456;2023-07-31T10:01:45;18.10;99.90
51765;DHT22;37835;53.256;6.456;2023-07-31T10:04:13;18.20;99.90
51765;DHT22;37835;53.256;6.456;2023-07-31T10:06:40;18.20;99.90
51765;DHT22;37835;53.256;6.456;2023-07-31T10:09:09;18.30;99.90
51765;DHT22;37835;53.256;6.456;2023-07-31T10:11:41;18.30;99.90
51765;DHT22;37835;53.256;6.456;2023-07-31T10:14:07;18.40;99.90
51765;DHT22;37835;53.256;6.456;2023-07-31T10:16:37;18.40;99.90
51765;DHT22;37835;53.256;6.456;2023-07-31T10:19:03;18.30;99.90
51765;DHT22;37835;53.256;6.456;2023-07-31T10:21:31;18.20;99.90
51765;DHT22;37835;53.256;6.456;2023-07-31T10:24:03;18.20;99.90
51765;DHT22;37835;53.256;6.456;2023-07-31T10:26:29;18.20;99.90
51765;DHT22;37835;53.256;6.456;2023-07-31T10:28:56;18.20;99.90
51765;DHT22;37835;53.256;6.456;2023-07-31T10:31:23;18.20;99.90
51765;DHT22;37835;53.256;6.456;2023-07-31T10:33:51;18.30;99.90
51765;DHT22;37835;53.256;6.456;2023-07-31T10:36:18;18.30;99.90
51765;DHT22;37835;53.256;6.456;2023-07-31T10:38:44;18.30;99.90
51765;DHT22;37835;53.256;6.456;2023-07-31T10:41:10;18.40;99.90
51765;DHT22;37835;53.256;6.456;2023-07-31T10:43:37;18.40;99.90
51765;DHT22;37835;53.256;6.456;2023-07-31T10:46:07;18.40;99.90
51765;DHT22;37835;53.256;6.456;2023-07-31T10:48:34;18.50;99.90
51765;DHT22;37835;53.256;6.456;2023-07-31T10:51:08;18.50;99.90
51765;DHT22;37835;53.256;6.456;2023-07-31T10:53:34;18.50;99.90
51765;DHT22;37835;53.256;6.456;2023-07-31T10:56:10;18.60;99.90
51765;DHT22;37835;53.256;6.456;2023-07-31T10:58:44;18.70;99.90
51765;DHT22;37835;53.256;6.456;2023-07-31T11:01:09;18.80;99.90
51765;DHT22;37835;53.256;6.456;2023-07-31T11:03:46;19.00;99.90
51765;DHT22;37835;53.256;6.456;2023-07-31T11:06:13;19.10;99.90
51765;DHT22;37835;53.256;6.456;2023-07-31T11:08:47;19.10;99.90
51765;DHT22;37835;53.256;6.456;2023-07-31T11:11:17;19.20;99.90
51765;DHT22;37835;53.256;6.456;2023-07-31T11:13:54;19.20;99.90
51765;DHT22;37835;53.256;6.456;2023-07-31T11:16:22;19.20;99.90
51765;DHT22;37835;53.256;6.456;2023-07-31T11:18:48;19.20;99.90
51765;DHT22;37835;53.256;6.456;2023-07-31T11:21:16;19.20;99.90
51765;DHT22;37835;53.256;6.456;2023-07-31T11:23:47;19.10;99.90
51765;DHT22;37835;53.256;6.456;2023-07-31T11:26:12;19.20;99.90
51765;DHT22;37835;53.256;6.456;2023-07-31T11:28:38;19.10;99.90
51765;DHT22;37835;53.256;6.456;2023-07-31T11:31:04;19.20;99.90
51765;DHT22;37835;53.256;6.456;2023-07-31T11:33:30;19.10;99.90
51765;DHT22;37835;53.256;6.456;2023-07-31T11:35:56;19.10;99.90
51765;DHT22;37835;53.256;6.456;2023-07-31T11:38:27;19.10;99.90
51765;DHT22;37835;53.256;6.456;2023-07-31T11:40:54;19.10;99.90
51765;DHT22;37835;53.256;6.456;2023-07-31T11:43:21;19.10;99.90
51765;DHT22;37835;53.256;6.456;2023-07-31T11:45:48;19.10;99.90
51765;DHT22;37835;53.256;6.456;2023-07-31T11:48:21;19.10;99.90
51765;DHT22;37835;53.256;6.456;2023-07-31T11:50:48;19.10;99.90
51765;DHT22;37835;53.256;6.456;2023-07-31T11:53:16;19.20;99.90
51765;DHT22;37835;53.256;6.456;2023-07-31T11:55:42;19.30;99.90
51765;DHT22;37835;53.256;6.456;2023-07-31T11:58:09;19.30;99.90
51765;DHT22;37835;53.256;6.456;2023-07-31T12:00:35;19.40;99.90
51765;DHT22;37835;53.256;6.456;2023-07-31T12:03:01;19.40;99.90
51765;DHT22;37835;53.256;6.456;2023-07-31T12:05:26;19.50;99.90
51765;DHT22;37835;53.256;6.456;2023-07-31T12:07:55;19.50;99.90
51765;DHT22;37835;53.256;6.456;2023-07-31T12:10:30;19.50;99.90
51765;DHT22;37835;53.256;6.456;2023-07-31T12:13:08;19.50;99.90
51765;DHT22;37835;53.256;6.456;2023-07-31T12:15:42;19.40;99.90
51765;DHT22;37835;53.256;6.456;2023-07-31T12:18:11;19.40;99.90
51765;DHT22;37835;53.256;6.456;2023-07-31T12:20:45;19.40;99.90
51765;DHT22;37835;53.256;6.456;2023-07-31T12:23:21;19.40;99.90
51765;DHT22;37835;53.256;6.456;2023-07-31T12:26:14;19.30;99.90
51765;DHT22;37835;53.256;6.456;2023-07-31T12:28:42;19.30;99.90
51765;DHT22;37835;53.256;6.456;2023-07-31T12:31:13;19.30;99.90
51765;DHT22;37835;53.256;6.456;2023-07-31T12:33:40;19.30;99.90
51765;DHT22;37835;53.256;6.456;2023-07-31T12:36:13;19.30;99.90
51765;DHT22;37835;53.256;6.456;2023-07-31T12:38:40;19.30;99.90
51765;DHT22;37835;53.256;6.456;2023-07-31T12:41:05;19.40;99.90
51765;DHT22;37835;53.256;6.456;2023-07-31T12:43:35;19.40;99.90
51765;DHT22;37835;53.256;6.456;2023-07-31T12:46:01;19.40;99.90
51765;DHT22;37835;53.256;6.456;2023-07-31T12:48:27;19.40;99.90
51765;DHT22;37835;53.256;6.456;2023-07-31T12:50:53;19.50;99.90
51765;DHT22;37835;53.256;6.456;2023-07-31T12:53:18;19.50;99.90
51765;DHT22;37835;53.256;6.456;2023-07-31T12:55:44;19.50;99.90
51765;DHT22;37835;53.256;6.456;2023-07-31T12:58:09;19.60;99.90
51765;DHT22;37835;53.256;6.456;2023-07-31T13:00:35;19.50;99.90
51765;DHT22;37835;53.256;6.456;2023-07-31T13:03:01;20.10;99.90
51765;DHT22;37835;53.256;6.456;2023-07-31T13:05:27;19.50;99.90
51765;DHT22;37835;53.256;6.456;2023-07-31T13:07:53;19.40;99.90
51765;DHT22;37835;53.256;6.456;2023-07-31T13:10:19;19.40;99.90
51765;DHT22;37835;53.256;6.456;2023-07-31T13:12:45;19.40;99.90
51765;DHT22;37835;53.256;6.456;2023-07-31T13:15:12;19.30;99.90
51765;DHT22;37835;53.256;6.456;2023-07-31T13:17:37;19.40;99.90
51765;DHT22;37835;53.256;6.456;2023-07-31T13:20:03;19.40;99.90
51765;DHT22;37835;53.256;6.456;2023-07-31T13:22:29;19.40;99.90
51765;DHT22;37835;53.256;6.456;2023-07-31T13:24:55;19.40;99.90
51765;DHT22;37835;53.256;6.456;2023-07-31T13:27:20;19.50;99.90
51765;DHT22;37835;53.256;6.456;2023-07-31T13:29:56;19.50;99.90
51765;DHT22;37835;53.256;6.456;2023-07-31T13:32:22;19.50;99.90
51765;DHT22;37835;53.256;6.456;2023-07-31T13:34:48;19.50;99.90
51765;DHT22;37835;53.256;6.456;2023-07-31T13:37:14;19.60;99.90
51765;DHT22;37835;53.256;6.456;2023-07-31T13:39:40;19.70;99.90
51765;DHT22;37835;53.256;6.456;2023-07-31T13:42:07;19.70;99.90
51765;DHT22;37835;53.256;6.456;2023-07-31T13:44:39;19.70;99.90
51765;DHT22;37835;53.256;6.456;2023-07-31T13:47:06;19.70;99.90
51765;DHT22;37835;53.256;6.456;2023-07-31T13:49:32;19.80;99.90
51765;DHT22;37835;53.256;6.456;2023-07-31T13:51:57;19.90;99.90
51765;DHT22;37835;53.256;6.456;2023-07-31T13:54:23;20.00;99.90
51765;DHT22;37835;53.256;6.456;2023-07-31T13:56:49;20.10;99.90
51765;DHT22;37835;53.256;6.456;2023-07-31T13:59:15;20.10;99.90
51765;DHT22;37835;53.256;6.456;2023-07-31T14:01:42;20.20;99.90
51765;DHT22;37835;53.256;6.456;2023-07-31T14:04:08;20.30;99.90
51765;DHT22;37835;53.256;6.456;2023-07-31T14:06:33;20.30;99.90
51765;DHT22;37835;53.256;6.456;2023-07-31T14:08:59;20.40;99.90
51765;DHT22;37835;53.256;6.456;2023-07-31T14:11:25;20.70;99.90
51765;DHT22;37835;53.256;6.456;2023-07-31T14:13:51;20.40;99.90
51765;DHT22;37835;53.256;6.456;2023-07-31T14:16:16;20.40;99.90
51765;DHT22;37835;53.256;6.456;2023-07-31T14:18:42;20.50;99.90
51765;DHT22;37835;53.256;6.456;2023-07-31T14:21:08;20.40;99.90
51765;DHT22;37835;53.256;6.456;2023-07-31T14:23:34;20.40;99.90
51765;DHT22;37835;53.256;6.456;2023-07-31T14:26:00;20.40;99.90
51765;DHT22;37835;53.256;6.456;2023-07-31T14:28:25;20.40;99.90
51765;DHT22;37835;53.256;6.456;2023-07-31T14:30:51;20.30;99.90
51765;DHT22;37835;53.256;6.456;2023-07-31T14:33:16;20.20;99.90
51765;DHT22;37835;53.256;6.456;2023-07-31T14:35:42;20.30;99.90
51765;DHT22;37835;53.256;6.456;2023-07-31T14:38:07;20.20;99.90
51765;DHT22;37835;53.256;6.456;2023-07-31T14:40:33;20.20;99.90
51765;DHT22;37835;53.256;6.456;2023-07-31T14:42:59;20.10;99.90
51765;DHT22;37835;53.256;6.456;2023-07-31T14:45:24;20.20;99.90
51765;DHT22;37835;53.256;6.456;2023-07-31T14:47:50;20.10;99.90
51765;DHT22;37835;53.256;6.456;2023-07-31T14:50:16;20.10;99.90
51765;DHT22;37835;53.256;6.456;2023-07-31T14:52:41;20.10;99.90
51765;DHT22;37835;53.256;6.456;2023-07-31T14:55:07;20.10;99.90
51765;DHT22;37835;53.256;6.456;2023-07-31T14:57:34;20.10;99.90
51765;DHT22;37835;53.256;6.456;2023-07-31T15:00:00;20.10;99.90
51765;DHT22;37835;53.256;6.456;2023-07-31T15:02:26;20.00;99.90
51765;DHT22;37835;53.256;6.456;2023-07-31T15:04:52;20.00;99.90
51765;DHT22;37835;53.256;6.456;2023-07-31T15:07:18;19.90;99.90
51765;DHT22;37835;53.256;6.456;2023-07-31T15:09:43;19.90;99.90
51765;DHT22;37835;53.256;6.456;2023-07-31T15:12:09;19.90;99.90
51765;DHT22;37835;53.256;6.456;2023-07-31T15:14:35;19.90;99.90
51765;DHT22;37835;53.256;6.456;2023-07-31T15:17:00;19.80;99.90
51765;DHT22;37835;53.256;6.456;2023-07-31T15:19:26;19.80;99.90
51765;DHT22;37835;53.256;6.456;2023-07-31T15:21:51;19.70;99.90
51765;DHT22;37835;53.256;6.456;2023-07-31T15:24:18;19.60;99.90
51765;DHT22;37835;53.256;6.456;2023-07-31T15:26:43;19.60;99.90
51765;DHT22;37835;53.256;6.456;2023-07-31T15:29:09;19.60;99.90